Time;durP1;ratioP1;P1;durP2;ratioP2;P2;SDS_P1;SDS_P2;PMS_P1;PMS_P2;Temp;Humidity;BMP_temperature;BMP_pressure;BME280_temperature;BME280_humidity;BME280_pressure;Samples;Min_cycle;Max_cycle;Signal;HPM_P1;HPM_P2
2022/08/13 00:02:16;;;;;;;2.15;1.90;;;17.20;76.40;;;;;;5053843;28;20593;-71
2022/08/13 00:05:02;;;;;;;4.47;2.10;;;17.10;76.50;;;;;;5055032;28;20189;-71
2022/08/13 00:07:29;;;;;;;2.83;1.83;;;17.00;76.40;;;;;;5054525;28;20605;-71
2022/08/13 00:09:56;;;;;;;2.47;2.00;;;17.00;76.50;;;;;;5053721;28;20186;-71
2022/08/13 00:15:20;;;;;;;1.88;1.77;;;17.00;76.70;;;;;;5055430;28;20234;-71
2022/08/13 00:17:49;;;;;;;2.10;1.90;;;16.80;77.40;;;;;;5053683;28;20170;-71
2022/08/13 00:20:17;;;;;;;1.98;1.88;;;16.70;78.10;;;;;;5053752;28;20206;-71
2022/08/13 00:22:43;;;;;;;3.25;2.10;;;16.70;78.50;;;;;;5054868;28;20205;-71
2022/08/13 00:28:32;;;;;;;2.20;2.10;;;16.50;79.50;;;;;;5054924;28;20208;-70
2022/08/13 00:30:59;;;;;;;3.85;2.38;;;16.30;80.40;;;;;;5053343;28;20192;-70
2022/08/13 00:33:24;;;;;;;3.42;2.05;;;16.30;80.50;;;;;;5055083;28;20190;-70
2022/08/13 00:35:52;;;;;;;2.40;2.20;;;16.30;81.00;;;;;;5054137;28;20189;-70
2022/08/13 00:38:20;;;;;;;2.45;2.03;;;16.40;81.30;;;;;;5053385;28;20706;-70
2022/08/13 00:40:50;;;;;;;5.28;1.98;;;16.40;81.30;;;;;;5054843;28;20190;-70
2022/08/13 00:43:16;;;;;;;2.00;1.90;;;16.30;81.70;;;;;;5053115;28;20715;-71
2022/08/13 00:45:42;;;;;;;4.00;1.92;;;16.30;82.00;;;;;;5053358;28;20182;-71
2022/08/13 00:50:56;;;;;;;3.95;2.20;;;16.20;82.50;;;;;;5055287;28;20252;-71
2022/08/13 00:53:23;;;;;;;2.42;2.20;;;16.30;82.60;;;;;;5054566;28;20198;-71
2022/08/13 00:55:52;;;;;;;2.05;1.95;;;16.30;82.70;;;;;;5053335;28;20178;-71
2022/08/13 00:58:19;;;;;;;2.40;2.10;;;16.30;82.40;;;;;;5052573;28;20213;-71
2022/08/13 01:00:54;;;;;;;2.58;2.15;;;16.30;82.40;;;;;;5054161;28;20679;-71
2022/08/13 01:06:41;;;;;;;3.85;2.20;;;16.20;82.30;;;;;;5054247;28;20760;-71
2022/08/13 01:09:08;;;;;;;2.63;2.00;;;16.20;82.80;;;;;;5053057;28;20268;-71
2022/08/13 01:11:35;;;;;;;2.38;1.92;;;16.10;83.80;;;;;;5052984;28;20195;-71
2022/08/13 01:14:05;;;;;;;5.05;2.33;;;16.10;83.10;;;;;;5052795;28;20178;-71
2022/08/13 01:16:36;;;;;;;3.10;2.00;;;16.10;83.40;;;;;;5053808;28;20247;-71
2022/08/13 01:19:03;;;;;;;2.05;1.90;;;16.00;83.90;;;;;;5052683;28;20194;-71
2022/08/13 01:21:39;;;;;;;3.67;1.90;;;16.00;84.00;;;;;;5054043;28;20196;-71
2022/08/13 01:24:11;;;;;;;3.28;2.00;;;16.00;84.50;;;;;;5052737;28;20245;-71
2022/08/13 01:26:40;;;;;;;3.90;2.00;;;16.00;84.70;;;;;;5052440;28;20173;-71
2022/08/13 01:29:08;;;;;;;4.72;2.22;;;15.90;85.20;;;;;;5052810;28;20196;-71
2022/08/13 01:31:34;;;;;;;3.97;2.10;;;15.80;85.80;;;;;;5053399;28;20269;-71
2022/08/13 01:34:01;;;;;;;2.95;1.92;;;15.80;85.70;;;;;;5053908;28;20596;-71
2022/08/13 01:36:28;;;;;;;3.95;2.10;;;15.90;85.80;;;;;;5054106;28;20545;-71
2022/08/13 01:38:57;;;;;;;2.22;2.03;;;15.90;85.70;;;;;;5053798;28;20244;-71
2022/08/13 01:41:25;;;;;;;3.67;2.25;;;15.80;86.70;;;;;;5055351;28;20162;-71
2022/08/13 01:43:51;;;;;;;7.75;2.25;;;15.70;87.00;;;;;;5053592;28;20181;-71
2022/08/13 01:46:17;;;;;;;2.28;2.08;;;15.60;87.50;;;;;;5054758;28;20181;-71
2022/08/13 01:51:33;;;;;;;5.28;2.30;;;15.50;88.60;;;;;;5055792;28;20201;-71
2022/08/13 01:53:59;;;;;;;2.40;2.20;;;15.40;89.40;;;;;;5054925;28;20649;-71
2022/08/13 01:56:27;;;;;;;2.42;2.05;;;15.30;89.90;;;;;;5055810;28;20185;-71
2022/08/13 01:58:57;;;;;;;4.22;2.38;;;15.40;89.80;;;;;;5054811;28;20589;-71
2022/08/13 02:01:25;;;;;;;2.90;2.15;;;15.40;89.60;;;;;;5053988;28;20289;-71
2022/08/13 02:03:51;;;;;;;2.58;2.10;;;15.40;89.90;;;;;;5054712;28;20180;-71
2022/08/13 02:06:26;;;;;;;2.92;2.25;;;15.40;89.90;;;;;;5055765;28;20228;-71
2022/08/13 02:08:59;;;;;;;3.25;2.60;;;15.40;90.00;;;;;;5056118;28;20182;-71
2022/08/13 02:11:27;;;;;;;2.25;2.15;;;15.30;90.00;;;;;;5056805;28;20200;-71
2022/08/13 02:13:54;;;;;;;2.47;2.30;;;15.30;90.10;;;;;;5059577;28;20180;-71
2022/08/13 02:16:21;;;;;;;2.90;2.38;;;15.30;90.20;;;;;;5059061;28;20178;-71
2022/08/13 02:18:47;;;;;;;3.05;2.20;;;15.20;90.10;;;;;;5058601;28;20688;-71
2022/08/13 02:21:13;;;;;;;2.30;2.20;;;15.10;90.40;;;;;;5059644;28;20224;-71
2022/08/13 02:23:39;;;;;;;4.28;2.47;;;15.10;90.60;;;;;;5058577;28;20174;-71
2022/08/13 02:26:08;;;;;;;2.33;2.13;;;15.10;90.60;;;;;;5058652;28;20175;-71
2022/08/13 02:28:39;;;;;;;3.45;2.28;;;15.10;90.80;;;;;;5058074;28;20170;-71
2022/08/13 02:31:06;;;;;;;2.47;2.25;;;15.10;91.00;;;;;;5060017;28;20151;-71
2022/08/13 02:33:33;;;;;;;2.70;2.50;;;15.20;91.00;;;;;;5058707;28;20191;-71
2022/08/13 02:35:59;;;;;;;3.83;2.38;;;15.10;91.10;;;;;;5058303;28;20232;-71
2022/08/13 02:38:25;;;;;;;2.45;2.25;;;14.90;91.50;;;;;;5058235;28;20174;-70
2022/08/13 02:43:35;;;;;;;4.82;2.50;;;14.70;91.80;;;;;;5060138;28;20216;-70
2022/08/13 02:46:01;;;;;;;2.60;2.50;;;14.70;92.30;;;;;;5058464;28;20179;-70
2022/08/13 02:48:29;;;;;;;2.80;2.60;;;14.60;92.40;;;;;;5059942;28;20193;-70
2022/08/13 02:50:56;;;;;;;3.72;2.53;;;14.70;92.40;;;;;;5057656;28;20197;-70
2022/08/13 02:53:23;;;;;;;2.55;2.40;;;14.60;93.10;;;;;;5058378;28;20286;-70
2022/08/13 02:55:48;;;;;;;4.10;2.75;;;14.70;93.00;;;;;;5056842;28;20177;-70
2022/08/13 02:58:15;;;;;;;2.88;2.42;;;14.70;92.80;;;;;;5057370;28;20173;-70
2022/08/13 03:00:47;;;;;;;4.70;2.42;;;14.70;92.80;;;;;;5057392;28;20231;-70
2022/08/13 03:03:13;;;;;;;3.70;2.55;;;14.70;92.90;;;;;;5057970;28;20222;-70
2022/08/13 03:05:39;;;;;;;4.07;2.70;;;14.60;92.80;;;;;;5057388;28;20177;-70
2022/08/13 03:08:04;;;;;;;2.85;2.53;;;14.60;92.90;;;;;;5056993;28;20189;-70
2022/08/13 03:10:30;;;;;;;2.45;2.25;;;14.70;93.10;;;;;;5056426;28;20187;-70
2022/08/13 03:13:15;;;;;;;4.93;2.55;;;14.60;93.60;;;;;;5056389;28;20206;-70
2022/08/13 03:15:44;;;;;;;2.35;2.13;;;14.50;94.00;;;;;;5056904;28;20171;-70
2022/08/13 03:18:11;;;;;;;4.03;2.58;;;14.50;94.00;;;;;;5058579;28;20182;-70
2022/08/13 03:20:36;;;;;;;3.65;2.30;;;14.40;94.40;;;;;;5057831;28;20373;-70
2022/08/13 03:23:02;;;;;;;3.95;2.25;;;14.40;94.40;;;;;;5056461;28;20280;-70
2022/08/13 03:25:29;;;;;;;2.60;2.40;;;14.50;94.70;;;;;;5057004;28;20641;-70
2022/08/13 03:27:58;;;;;;;3.03;2.30;;;14.50;94.30;;;;;;5058555;28;20247;-70
2022/08/13 03:30:24;;;;;;;2.67;2.40;;;14.50;94.10;;;;;;5058404;28;20182;-70
2022/08/13 03:32:51;;;;;;;2.72;2.53;;;14.40;93.90;;;;;;5055926;28;20205;-70
2022/08/13 03:35:23;;;;;;;3.13;2.50;;;14.50;93.80;;;;;;5056494;28;20240;-70
2022/08/13 03:37:53;;;;;;;7.13;2.22;;;14.40;94.10;;;;;;5055650;28;20170;-70
2022/08/13 03:40:21;;;;;;;2.72;2.40;;;14.40;94.30;;;;;;5055212;28;20198;-70
2022/08/13 03:42:50;;;;;;;2.80;2.58;;;14.40;94.60;;;;;;5055306;28;20241;-70
2022/08/13 03:45:17;;;;;;;2.60;2.42;;;14.20;95.10;;;;;;5056397;28;20547;-70
2022/08/13 03:47:43;;;;;;;2.63;2.53;;;14.20;95.50;;;;;;5055441;28;20171;-70
2022/08/13 03:50:11;;;;;;;2.70;2.50;;;14.20;95.60;;;;;;5055560;28;20197;-70
2022/08/13 03:52:37;;;;;;;2.50;2.33;;;14.30;95.50;;;;;;5055765;28;20214;-70
2022/08/13 03:55:09;;;;;;;4.05;2.83;;;14.30;95.50;;;;;;5055022;28;20186;-70
2022/08/13 03:57:41;;;;;;;3.35;2.50;;;14.20;95.60;;;;;;5054862;28;20300;-70
2022/08/13 04:00:11;;;;;;;2.97;2.67;;;14.10;95.90;;;;;;5055978;28;20200;-70
2022/08/13 04:02:41;;;;;;;4.90;2.47;;;14.10;96.20;;;;;;5054522;28;20194;-70
2022/08/13 04:05:16;;;;;;;2.67;2.25;;;14.10;96.20;;;;;;5056190;28;20285;-70
2022/08/13 04:07:45;;;;;;;2.63;2.38;;;14.10;96.20;;;;;;5055879;28;20158;-70
2022/08/13 04:10:12;;;;;;;3.33;2.40;;;14.10;96.10;;;;;;5054668;28;20174;-70
2022/08/13 04:12:38;;;;;;;3.65;2.55;;;14.20;96.10;;;;;;5055291;28;20201;-70
2022/08/13 04:15:06;;;;;;;2.58;2.40;;;14.20;95.90;;;;;;5055234;28;20227;-70
2022/08/13 04:17:36;;;;;;;3.75;2.50;;;14.40;96.00;;;;;;5055462;28;20243;-70
2022/08/13 04:20:07;;;;;;;4.90;2.42;;;14.40;95.70;;;;;;5056296;28;20210;-70
2022/08/13 04:22:33;;;;;;;5.53;2.65;;;14.40;95.60;;;;;;5055085;28;20199;-70
2022/08/13 04:24:59;;;;;;;2.83;2.55;;;14.40;95.20;;;;;;5055231;28;20170;-70
2022/08/13 04:27:25;;;;;;;6.63;3.05;;;14.40;95.00;;;;;;5055967;28;20185;-70
2022/08/13 04:29:56;;;;;;;9.70;3.60;;;14.30;95.10;;;;;;5056568;28;20257;-70
2022/08/13 04:32:23;;;;;;;6.65;3.20;;;14.20;95.10;;;;;;5054275;28;20279;-70
2022/08/13 04:34:48;;;;;;;8.32;3.03;;;14.30;95.30;;;;;;5054228;28;20213;-70
2022/08/13 04:37:14;;;;;;;2.80;2.60;;;14.40;95.60;;;;;;5055957;28;20170;-70
2022/08/13 04:39:40;;;;;;;2.35;2.10;;;14.50;95.60;;;;;;5055725;28;20224;-70
2022/08/13 04:42:07;;;;;;;2.53;2.22;;;14.60;95.60;;;;;;5054884;28;20194;-70
2022/08/13 04:44:34;;;;;;;5.25;2.65;;;14.60;95.40;;;;;;5054756;28;20174;-70
2022/08/13 04:46:59;;;;;;;3.67;2.58;;;14.70;95.40;;;;;;5054770;28;20177;-70
2022/08/13 04:49:25;;;;;;;3.45;3.03;;;14.70;95.30;;;;;;5054782;28;20182;-70
2022/08/13 04:51:51;;;;;;;3.83;2.70;;;14.60;95.00;;;;;;5054653;28;20209;-70
2022/08/13 04:54:19;;;;;;;11.52;3.58;;;14.50;94.90;;;;;;5055473;28;20190;-70
2022/08/13 04:56:45;;;;;;;3.90;3.03;;;14.60;94.80;;;;;;5054215;28;20182;-70
2022/08/13 04:59:12;;;;;;;9.20;3.63;;;14.70;94.90;;;;;;5055737;28;20202;-70
2022/08/13 05:01:38;;;;;;;4.55;2.90;;;14.80;94.60;;;;;;5055826;28;20247;-70
2022/08/13 05:04:04;;;;;;;7.22;3.13;;;14.90;94.40;;;;;;5056685;28;20224;-70
2022/08/13 05:06:29;;;;;;;11.32;3.20;;;15.00;94.40;;;;;;5055603;28;20174;-70
2022/08/13 05:09:00;;;;;;;5.25;3.08;;;15.10;94.30;;;;;;5054709;28;20182;-70
2022/08/13 05:11:32;;;;;;;3.53;2.70;;;15.20;94.30;;;;;;5056884;28;20154;-70
2022/08/13 05:13:57;;;;;;;2.72;2.53;;;15.20;94.10;;;;;;5055507;28;20180;-70
2022/08/13 05:16:23;;;;;;;6.40;2.70;;;15.30;94.20;;;;;;5056082;28;20265;-70
2022/08/13 05:18:56;;;;;;;3.50;2.50;;;15.40;94.20;;;;;;5056642;28;20205;-70
2022/08/13 05:21:23;;;;;;;12.52;3.25;;;15.50;93.80;;;;;;5055349;28;20170;-70
2022/08/13 05:23:53;;;;;;;11.68;3.55;;;15.60;93.50;;;;;;5056448;28;20170;-70
2022/08/13 05:26:31;;;;;;;35.22;4.32;;;15.70;93.40;;;;;;5055828;28;20262;-70
2022/08/13 05:29:04;;;;;;;15.90;3.53;;;15.90;93.20;;;;;;5055741;28;20182;-70
2022/08/13 05:31:30;;;;;;;6.35;2.85;;;15.90;93.40;;;;;;5056042;28;20198;-70
2022/08/13 05:33:57;;;;;;;5.50;2.97;;;16.00;93.30;;;;;;5056846;28;20186;-70
2022/08/13 05:36:28;;;;;;;4.05;2.88;;;16.00;93.30;;;;;;5057733;28;20170;-70
2022/08/13 05:38:55;;;;;;;7.25;2.97;;;16.00;93.10;;;;;;5056884;28;20194;-70
2022/08/13 05:41:22;;;;;;;10.40;3.10;;;16.10;92.80;;;;;;5055229;28;20551;-70
2022/08/13 05:43:50;;;;;;;4.10;3.00;;;16.20;92.70;;;;;;5054871;28;20232;-70
2022/08/13 05:46:16;;;;;;;6.20;2.83;;;16.20;92.70;;;;;;5055575;28;20174;-71
2022/08/13 05:48:56;;;;;;;3.78;2.85;;;16.30;93.20;;;;;;5054114;28;20228;-71
2022/08/13 05:51:25;;;;;;;4.50;3.15;;;16.50;93.00;;;;;;5053411;28;20185;-71
2022/08/13 05:53:55;;;;;;;4.00;3.08;;;16.70;92.50;;;;;;5053877;28;20230;-71
2022/08/13 05:56:24;;;;;;;7.18;2.70;;;16.90;93.10;;;;;;5055276;28;20173;-71
2022/08/13 05:58:50;;;;;;;5.30;2.75;;;17.10;93.20;;;;;;5054150;28;20267;-71
2022/08/13 06:04:14;;;;;;;6.28;2.90;;;17.50;91.60;;;;;;5054640;28;20165;-70
2022/08/13 06:06:40;;;;;;;7.70;2.67;;;17.80;91.20;;;;;;5053002;28;20177;-70
2022/08/13 06:09:07;;;;;;;4.40;2.60;;;18.00;90.30;;;;;;5054055;28;20181;-70
2022/08/13 06:11:33;;;;;;;4.10;2.50;;;18.20;90.20;;;;;;5053843;28;20292;-70
2022/08/13 06:13:59;;;;;;;2.33;2.13;;;18.40;88.90;;;;;;5053094;28;20178;-70
2022/08/13 06:16:28;;;;;;;5.88;2.38;;;18.60;88.50;;;;;;5052076;28;20186;-70
2022/08/13 06:18:57;;;;;;;5.97;2.67;;;18.70;89.40;;;;;;5052085;28;20194;-70
2022/08/13 06:21:24;;;;;;;6.38;2.53;;;18.80;89.50;;;;;;5051876;28;20260;-70
2022/08/13 06:23:50;;;;;;;10.07;2.90;;;18.70;90.00;;;;;;5051998;28;20270;-70
2022/08/13 06:26:17;;;;;;;14.43;2.80;;;18.90;90.20;;;;;;5052038;28;20170;-70
2022/08/13 06:28:44;;;;;;;7.32;2.38;;;19.00;89.80;;;;;;5052045;28;20166;-70
2022/08/13 06:31:25;;;;;;;6.13;2.25;;;19.10;88.00;;;;;;5052593;28;20205;-71
2022/08/13 06:33:55;;;;;;;4.60;2.20;;;19.20;86.20;;;;;;5052285;28;20166;-71
2022/08/13 06:36:24;;;;;;;12.43;2.90;;;19.40;85.90;;;;;;5053302;28;20251;-71
2022/08/13 06:38:50;;;;;;;14.00;2.63;;;19.40;90.10;;;;;;5054211;28;20237;-71
2022/08/13 06:41:18;;;;;;;23.77;3.65;;;19.50;89.30;;;;;;5053511;28;20178;-71
2022/08/13 06:43:51;;;;;;;6.70;2.60;;;19.60;87.40;;;;;;5054368;28;20261;-71
2022/08/13 06:46:24;;;;;;;3.42;2.40;;;19.80;87.50;;;;;;5054488;28;20166;-71
2022/08/13 06:48:50;;;;;;;3.17;2.70;;;20.00;85.50;;;;;;5056001;28;20213;-71
2022/08/13 06:51:15;;;;;;;8.45;2.28;;;20.20;84.10;;;;;;5056389;28;20186;-71
2022/08/13 06:53:47;;;;;;;6.43;2.13;;;20.40;82.80;;;;;;5055202;28;20174;-71
2022/08/13 06:56:18;;;;;;;12.23;2.28;;;20.60;81.50;;;;;;5055845;28;20163;-71
2022/08/13 06:58:46;;;;;;;5.95;2.47;;;20.80;81.60;;;;;;5059886;28;20217;-71
2022/08/13 07:01:17;;;;;;;6.95;2.50;;;20.90;82.60;;;;;;5058900;28;20181;-71
2022/08/13 07:03:44;;;;;;;5.43;2.33;;;21.00;83.30;;;;;;5056427;28;20211;-72
2022/08/13 07:06:27;;;;;;;5.68;2.20;;;21.10;82.60;;;;;;5056424;28;20178;-71
2022/08/13 07:08:58;;;;;;;6.88;2.40;;;21.20;82.90;;;;;;5056120;28;20174;-71
2022/08/13 07:11:26;;;;;;;7.28;2.85;;;21.30;82.50;;;;;;5056026;28;20186;-72
2022/08/13 07:14:02;;;;;;;4.35;2.20;;;21.40;81.70;;;;;;5056201;28;20688;-72
2022/08/13 07:16:34;;;;;;;3.47;2.30;;;21.50;80.70;;;;;;5056583;28;20186;-72
2022/08/13 07:19:00;;;;;;;3.75;2.20;;;21.60;80.10;;;;;;5056136;28;20190;-72
2022/08/13 07:21:28;;;;;;;3.17;2.20;;;21.70;80.60;;;;;;5055765;28;20171;-72
2022/08/13 07:23:54;;;;;;;2.35;2.17;;;21.80;78.60;;;;;;5056165;28;20584;-72
2022/08/13 07:26:24;;;;;;;3.97;2.00;;;22.00;77.90;;;;;;5055676;28;20178;-72
2022/08/13 07:28:50;;;;;;;7.97;2.30;;;22.20;76.90;;;;;;5055214;28;20553;-71
2022/08/13 07:31:24;;;;;;;4.15;2.08;;;22.40;76.40;;;;;;5055249;28;20182;-71
2022/08/13 07:33:52;;;;;;;6.85;2.35;;;22.50;76.40;;;;;;5056132;28;20169;-71
2022/08/13 07:36:19;;;;;;;6.47;2.20;;;22.70;74.40;;;;;;5055023;28;20208;-72
2022/08/13 07:38:47;;;;;;;2.35;2.17;;;22.80;74.50;;;;;;5055402;28;20213;-72
2022/08/13 07:41:13;;;;;;;2.45;2.08;;;23.00;73.10;;;;;;5054988;28;20641;-72
2022/08/13 07:43:44;;;;;;;5.78;2.20;;;23.10;72.10;;;;;;5056274;28;20178;-73
2022/08/13 07:46:15;;;;;;;3.08;1.80;;;23.30;70.40;;;;;;5054962;28;20173;-72
2022/08/13 07:48:46;;;;;;;5.13;2.20;;;23.50;68.80;;;;;;5054894;28;20167;-72
2022/08/13 07:51:21;;;;;;;6.60;2.00;;;23.60;67.50;;;;;;5054908;28;20717;-71
2022/08/13 07:53:52;;;;;;;4.57;2.00;;;23.70;67.40;;;;;;5057682;28;20166;-73
2022/08/13 07:56:28;;;;;;;3.67;1.85;;;23.80;64.90;;;;;;5056152;28;20717;-72
2022/08/13 07:59:15;;;;;;;2.95;2.10;;;23.90;65.80;;;;;;5055499;28;20300;-72
2022/08/13 08:01:48;;;;;;;2.00;1.90;;;24.00;64.30;;;;;;5056390;28;20217;-72
2022/08/13 08:04:15;;;;;;;6.63;2.40;;;24.10;64.00;;;;;;5055164;28;20170;-77
2022/08/13 08:06:45;;;;;;;3.97;1.90;;;24.20;63.30;;;;;;5054895;28;20174;-72
2022/08/13 08:09:24;;;;;;;10.05;2.65;;;24.40;65.00;;;;;;5055623;28;20177;-71
2022/08/13 08:15:14;;;;;;;5.95;2.10;;;24.70;62.90;;;;;;5055461;28;20546;-72
2022/08/13 08:17:45;;;;;;;3.70;2.28;;;24.80;61.00;;;;;;5054323;28;20625;-71
2022/08/13 08:20:18;;;;;;;2.78;1.90;;;25.00;59.90;;;;;;5053732;28;20224;-71
2022/08/13 08:22:45;;;;;;;4.18;2.17;;;25.00;58.90;;;;;;5053854;28;20193;-72
2022/08/13 08:25:15;;;;;;;9.13;1.90;;;25.20;58.10;;;;;;5054021;28;20179;-72
2022/08/13 08:27:41;;;;;;;4.65;2.03;;;25.30;57.80;;;;;;5055245;28;20520;-72
2022/08/13 08:30:07;;;;;;;2.40;1.80;;;25.40;56.60;;;;;;5053982;28;20181;-72
2022/08/13 08:32:35;;;;;;;4.20;1.88;;;25.60;56.80;;;;;;5053577;28;20205;-72
2022/08/13 08:35:01;;;;;;;1.90;1.80;;;25.60;55.70;;;;;;5054489;28;20550;-71
2022/08/13 08:43:10;;;;;;;4.10;1.90;;;25.80;54.70;;;;;;5055524;28;20240;-72
2022/08/13 08:45:36;;;;;;;2.22;1.60;;;25.80;52.30;;;;;;5055239;28;20171;-71
2022/08/13 08:48:03;;;;;;;3.53;1.90;;;25.60;53.60;;;;;;5054681;28;20178;-71
2022/08/13 08:50:28;;;;;;;2.42;2.03;;;25.20;53.60;;;;;;5053509;28;20539;-71
2022/08/13 08:55:42;;;;;;;4.63;1.90;;;25.30;55.40;;;;;;5054751;28;20182;-72
2022/08/13 08:58:11;;;;;;;4.10;1.70;;;25.80;53.70;;;;;;5054117;28;20189;-72
2022/08/13 09:00:39;;;;;;;4.03;1.88;;;26.30;52.50;;;;;;5052784;28;20209;-72
2022/08/13 09:03:09;;;;;;;7.13;2.15;;;26.80;50.00;;;;;;5052885;28;20209;-72
2022/08/13 09:05:35;;;;;;;3.90;1.75;;;27.00;51.30;;;;;;5053319;28;20176;-72
2022/08/13 09:08:06;;;;;;;3.40;1.70;;;27.30;48.60;;;;;;5053506;28;20178;-72
2022/08/13 09:10:35;;;;;;;1.92;1.70;;;27.70;50.30;;;;;;5054202;28;20170;-72
2022/08/13 09:13:02;;;;;;;4.00;1.90;;;27.70;46.60;;;;;;5052965;28;20225;-72
2022/08/13 09:15:39;;;;;;;7.18;1.60;;;27.60;44.30;;;;;;5052884;28;20182;-72
2022/08/13 09:18:05;;;;;;;2.30;1.40;;;27.40;43.70;;;;;;5053665;28;20177;-73
2022/08/13 09:20:33;;;;;;;2.40;1.70;;;27.80;43.70;;;;;;5054046;28;20208;-72
2022/08/13 09:23:12;;;;;;;2.90;1.55;;;28.20;42.60;;;;;;5054751;28;20604;-72
2022/08/13 09:25:43;;;;;;;2.80;1.80;;;28.60;43.10;;;;;;5052732;28;20228;-72
2022/08/13 09:28:10;;;;;;;1.95;1.80;;;28.40;42.40;;;;;;5053489;28;20503;-72
2022/08/13 09:30:37;;;;;;;3.30;1.88;;;27.80;43.50;;;;;;5054116;28;20182;-72
2022/08/13 09:33:03;;;;;;;2.03;1.80;;;27.70;44.80;;;;;;5052870;28;20195;-72
2022/08/13 09:35:30;;;;;;;1.90;1.80;;;27.30;43.50;;;;;;5053526;28;20185;-72
2022/08/13 09:37:57;;;;;;;2.63;1.95;;;27.40;43.50;;;;;;5052901;28;20227;-72
2022/08/13 09:41:04;;;;;;;2.75;1.83;;;27.50;43.70;;;;;;5055090;28;20194;-72
2022/08/13 09:43:38;;;;;;;1.85;1.75;;;27.50;43.50;;;;;;5052983;28;20200;-77
2022/08/13 09:46:15;;;;;;;2.15;1.60;;;27.70;42.70;;;;;;5052400;28;20173;-72
2022/08/13 09:48:41;;;;;;;1.67;1.58;;;27.90;43.60;;;;;;5052489;28;20178;-72
2022/08/13 09:51:13;;;;;;;2.35;1.60;;;28.00;42.90;;;;;;5052970;28;20234;-71
2022/08/13 09:53:43;;;;;;;2.08;1.70;;;28.00;40.70;;;;;;5052690;28;20197;-71
2022/08/13 09:56:08;;;;;;;2.65;1.50;;;28.00;40.20;;;;;;5052221;28;20747;-71
2022/08/13 09:58:34;;;;;;;2.22;1.70;;;28.00;40.90;;;;;;5054237;28;20178;-71
2022/08/13 10:01:00;;;;;;;1.90;1.80;;;27.60;40.90;;;;;;5052681;28;20186;-71
2022/08/13 10:03:25;;;;;;;4.85;1.88;;;27.50;42.00;;;;;;5052038;28;20190;-71
2022/08/13 10:05:51;;;;;;;3.80;1.70;;;27.60;42.80;;;;;;5052285;28;20186;-71
2022/08/13 10:08:18;;;;;;;1.75;1.65;;;27.80;42.50;;;;;;5051882;28;20178;-71
2022/08/13 10:10:46;;;;;;;4.60;2.10;;;27.80;42.70;;;;;;5053167;28;20178;-71
2022/08/13 10:13:13;;;;;;;1.73;1.63;;;28.00;43.30;;;;;;5053311;28;20244;-71
2022/08/13 10:15:39;;;;;;;8.25;2.22;;;28.00;42.00;;;;;;5052326;28;20189;-71
2022/08/13 10:18:05;;;;;;;3.72;1.90;;;27.50;42.00;;;;;;5052857;28;20632;-71
2022/08/13 10:20:36;;;;;;;3.35;1.67;;;27.60;43.60;;;;;;5052810;28;20205;-71
2022/08/13 10:23:04;;;;;;;3.72;1.80;;;27.60;42.70;;;;;;5053416;28;20197;-71
2022/08/13 10:25:30;;;;;;;4.05;1.80;;;27.80;43.40;;;;;;5052710;28;20174;-71
2022/08/13 10:27:56;;;;;;;4.40;1.90;;;27.70;41.40;;;;;;5052348;28;20685;-71
2022/08/13 10:30:24;;;;;;;3.60;1.60;;;27.40;41.60;;;;;;5052537;28;20269;-71
2022/08/13 10:32:54;;;;;;;2.75;1.55;;;27.30;42.10;;;;;;5055214;28;20205;-71
2022/08/13 10:35:21;;;;;;;1.88;1.63;;;27.40;41.70;;;;;;5056879;28;20181;-71
2022/08/13 10:37:56;;;;;;;3.88;1.95;;;27.60;41.60;;;;;;5056236;28;20189;-71
2022/08/13 10:40:23;;;;;;;2.33;1.63;;;27.70;42.40;;;;;;5055377;28;20246;-71
2022/08/13 10:42:49;;;;;;;2.63;1.90;;;27.80;41.90;;;;;;5055798;28;20549;-71
2022/08/13 10:45:16;;;;;;;4.72;1.88;;;27.90;41.30;;;;;;5055628;28;20181;-71
2022/08/13 10:47:50;;;;;;;4.05;1.80;;;27.90;41.20;;;;;;5055386;28;20552;-71
2022/08/13 10:50:19;;;;;;;2.53;1.70;;;27.90;40.80;;;;;;5055458;28;20189;-71
2022/08/13 10:52:45;;;;;;;5.80;2.03;;;27.90;41.10;;;;;;5055246;28;20221;-71
2022/08/13 10:55:13;;;;;;;5.45;1.90;;;27.90;40.50;;;;;;5055601;28;20178;-71
2022/08/13 10:57:45;;;;;;;4.18;1.90;;;27.70;42.10;;;;;;5055299;28;20204;-71
2022/08/13 11:00:17;;;;;;;4.32;1.90;;;27.90;43.10;;;;;;5055949;28;20217;-71
2022/08/13 11:02:43;;;;;;;3.25;2.08;;;27.90;41.40;;;;;;5055359;28;20225;-72
2022/08/13 11:05:11;;;;;;;3.25;2.35;;;27.80;40.40;;;;;;5055372;28;20178;-72
2022/08/13 11:07:38;;;;;;;6.43;2.45;;;27.80;41.10;;;;;;5056486;28;20181;-72
2022/08/13 11:10:08;;;;;;;7.13;2.65;;;27.80;41.40;;;;;;5054862;28;20209;-72
2022/08/13 11:12:50;;;;;;;2.97;2.70;;;27.90;40.80;;;;;;5056394;28;20605;-72
2022/08/13 11:15:21;;;;;;;3.75;2.53;;;28.00;41.10;;;;;;5055809;28;20170;-72
2022/08/13 11:17:53;;;;;;;6.55;2.50;;;28.10;40.70;;;;;;5056439;28;20172;-72
2022/08/13 11:20:20;;;;;;;3.55;2.40;;;28.30;41.20;;;;;;5055690;28;20225;-72
2022/08/13 11:22:57;;;;;;;8.98;2.33;;;28.20;41.10;;;;;;5055174;28;20197;-72
2022/08/13 11:25:24;;;;;;;5.68;2.53;;;28.20;40.80;;;;;;5055236;28;20257;-72
2022/08/13 11:27:49;;;;;;;1.90;1.80;;;28.20;41.60;;;;;;5054699;28;20228;-72
2022/08/13 11:30:16;;;;;;;10.45;2.30;;;28.20;40.10;;;;;;5056068;28;20178;-72
2022/08/13 11:32:42;;;;;;;3.95;2.00;;;28.20;40.20;;;;;;5054674;28;20227;-72
2022/08/13 11:35:09;;;;;;;7.10;2.33;;;28.20;40.20;;;;;;5055716;28;20251;-72
2022/08/13 11:37:35;;;;;;;3.47;2.10;;;28.20;40.30;;;;;;5054741;28;20573;-72
2022/08/13 11:40:03;;;;;;;3.20;1.70;;;28.00;40.30;;;;;;5054421;28;20201;-72
2022/08/13 11:42:29;;;;;;;2.10;2.00;;;27.90;41.40;;;;;;5055104;28;20182;-72
2022/08/13 11:44:55;;;;;;;3.63;1.70;;;28.00;41.80;;;;;;5055570;28;20637;-72
2022/08/13 11:47:21;;;;;;;2.92;1.70;;;28.00;40.30;;;;;;5054306;28;20189;-72
2022/08/13 11:49:46;;;;;;;6.70;2.00;;;28.10;40.40;;;;;;5054283;28;20198;-72
2022/08/13 11:52:12;;;;;;;1.63;1.52;;;28.20;40.20;;;;;;5054440;28;20194;-72
2022/08/13 11:54:37;;;;;;;2.97;1.70;;;28.40;39.40;;;;;;5054444;28;20186;-72
2022/08/13 11:57:05;;;;;;;3.35;1.90;;;28.30;39.50;;;;;;5054069;28;20224;-72
2022/08/13 11:59:30;;;;;;;5.35;1.85;;;28.30;39.70;;;;;;5055476;28;20285;-72
2022/08/13 12:01:56;;;;;;;5.53;2.10;;;28.20;40.50;;;;;;5054860;28;20756;-72
2022/08/13 12:04:22;;;;;;;3.33;1.92;;;28.40;40.70;;;;;;5054443;28;20198;-71
2022/08/13 12:06:48;;;;;;;2.20;2.03;;;28.40;40.20;;;;;;5054194;28;20178;-71
2022/08/13 12:09:14;;;;;;;2.17;2.00;;;28.60;41.40;;;;;;5054212;28;20190;-75
2022/08/13 12:11:39;;;;;;;2.38;1.90;;;28.70;40.10;;;;;;5055061;28;20201;-72
2022/08/13 12:14:05;;;;;;;2.00;1.90;;;28.80;39.60;;;;;;5054148;28;20650;-72
2022/08/13 12:16:30;;;;;;;1.92;1.80;;;28.80;39.40;;;;;;5053695;28;20170;-72
2022/08/13 12:18:56;;;;;;;1.88;1.77;;;28.80;40.20;;;;;;5054476;28;20178;-72
2022/08/13 12:21:22;;;;;;;1.90;1.80;;;28.60;40.10;;;;;;5054769;28;20170;-72
2022/08/13 12:23:47;;;;;;;4.80;2.10;;;28.10;40.40;;;;;;5053757;28;20182;-72
2022/08/13 12:26:13;;;;;;;1.98;1.77;;;27.70;40.20;;;;;;5056198;28;20185;-71
2022/08/13 12:28:38;;;;;;;2.03;1.90;;;27.40;40.80;;;;;;5054908;28;20190;-71
2022/08/13 12:31:10;;;;;;;2.13;1.92;;;27.50;40.70;;;;;;5053794;28;20250;-71
2022/08/13 12:33:37;;;;;;;3.13;2.10;;;27.80;40.70;;;;;;5053955;28;20633;-71
2022/08/13 12:36:03;;;;;;;2.20;2.03;;;27.90;40.10;;;;;;5053825;28;20637;-71
2022/08/13 12:38:29;;;;;;;1.80;1.70;;;28.10;40.30;;;;;;5053392;28;20278;-71
2022/08/13 12:40:55;;;;;;;4.05;2.10;;;28.40;39.60;;;;;;5053694;28;20297;-71
2022/08/13 12:43:20;;;;;;;1.95;1.75;;;28.60;39.70;;;;;;5053321;28;20190;-71
2022/08/13 12:45:46;;;;;;;2.08;1.90;;;28.90;40.60;;;;;;5053626;28;20178;-72
2022/08/13 12:48:17;;;;;;;3.70;1.95;;;29.10;38.70;;;;;;5053876;28;20205;-72
2022/08/13 12:50:46;;;;;;;2.10;2.00;;;29.30;38.70;;;;;;5053188;28;20288;-72
2022/08/13 12:53:13;;;;;;;2.65;2.00;;;29.50;38.30;;;;;;5053436;28;20205;-72
2022/08/13 12:55:40;;;;;;;1.95;1.85;;;29.20;38.30;;;;;;5053231;28;20188;-71
2022/08/13 12:58:17;;;;;;;2.85;1.90;;;28.70;38.80;;;;;;5053417;28;20293;-71
2022/08/13 13:00:44;;;;;;;2.92;2.00;;;28.50;39.70;;;;;;5053098;28;20725;-71
2022/08/13 13:03:11;;;;;;;3.38;2.20;;;28.60;39.50;;;;;;5053139;28;20221;-71
2022/08/13 13:05:38;;;;;;;3.75;1.95;;;28.70;39.30;;;;;;5054367;28;20557;-71
2022/08/13 13:08:13;;;;;;;2.17;1.88;;;29.20;38.80;;;;;;5053077;28;20174;-71
2022/08/13 13:10:39;;;;;;;2.22;2.10;;;29.60;39.80;;;;;;5052738;28;20197;-71
2022/08/13 13:13:05;;;;;;;4.68;2.17;;;29.90;37.90;;;;;;5052894;28;20271;-71
2022/08/13 13:15:30;;;;;;;6.40;2.20;;;30.20;38.40;;;;;;5052746;28;20174;-71
2022/08/13 13:17:56;;;;;;;2.20;2.10;;;30.00;37.50;;;;;;5053418;28;20185;-71
2022/08/13 13:20:22;;;;;;;3.03;2.05;;;29.40;38.50;;;;;;5054645;28;20251;-71
2022/08/13 13:22:47;;;;;;;2.40;2.22;;;29.20;39.40;;;;;;5054027;28;20718;-71
2022/08/13 13:25:13;;;;;;;7.30;2.22;;;29.30;39.10;;;;;;5052563;28;20231;-71